Time;durP1;ratioP1;P1;durP2;ratioP2;P2;SDS_P1;SDS_P2;PMS_P1;PMS_P2;Temp;Humidity;BMP_temperature;BMP_pressure;BME280_temperature;BME280_humidity;BME280_pressure;Samples;Min_cycle;Max_cycle;Signal;HPM_P1;HPM_P2
2023/04/05 00:01:36;;;;;;;10.27;5.80;;;;;;;;;;5075788;28;20414;-79
2023/04/05 00:04:02;;;;;;;12.02;6.35;;;;;;;;;;5065306;28;20458;-79
2023/04/05 00:06:29;;;;;;;10.50;5.80;;;;;;;;;;5048506;28;20751;-79
2023/04/05 00:08:56;;;;;;;11.00;6.60;;;;;;;;;;5084724;28;20425;-78
2023/04/05 00:11:22;;;;;;;9.88;5.82;;;;;;;;;;5063178;28;20421;-78
2023/04/05 00:13:48;;;;;;;11.68;6.35;;;;;;;;;;5067170;28;20433;-78
2023/04/05 00:16:15;;;;;;;10.05;6.07;;;;;;;;;;5052944;28;21009;-79
2023/04/05 00:18:48;;;;;;;10.88;5.93;;;;;;;;;;5080694;28;20414;-78
2023/04/05 00:21:15;;;;;;;13.60;6.45;;;;;;;;;;5086945;28;20413;-78
2023/04/05 00:23:43;;;;;;;10.95;6.25;;;;;;;;;;5073507;28;20493;-78
2023/04/05 00:26:10;;;;;;;14.38;6.57;;;;;;;;;;5081997;28;20417;-78
2023/04/05 00:28:36;;;;;;;13.85;7.07;;;;;;;;;;5073995;28;20888;-78
2023/04/05 00:31:02;;;;;;;13.27;6.38;;;;;;;;;;5055566;28;20474;-78
2023/04/05 00:33:28;;;;;;;15.00;6.70;;;;;;;;;;5074792;28;20746;-78
2023/04/05 00:35:54;;;;;;;12.38;6.00;;;;;;;;;;5074612;28;20405;-77
2023/04/05 00:38:20;;;;;;;10.68;6.22;;;;;;;;;;5108407;28;20398;-77
2023/04/05 00:40:46;;;;;;;13.80;8.25;;;;;;;;;;5071310;28;20921;-77
2023/04/05 00:43:12;;;;;;;11.30;6.72;;;;;;;;;;5072887;28;20921;-76
2023/04/05 00:45:38;;;;;;;13.98;7.40;;;;;;;;;;5097657;28;20415;-78
2023/04/05 00:48:05;;;;;;;10.47;6.90;;;;;;;;;;5066710;28;20455;-77
2023/04/05 00:50:31;;;;;;;11.98;6.85;;;;;;;;;;5089323;28;20449;-78
2023/04/05 00:52:57;;;;;;;10.40;6.38;;;;;;;;;;5108511;28;20406;-78
2023/04/05 00:55:25;;;;;;;11.20;6.50;;;;;;;;;;5074317;28;20420;-78
2023/04/05 00:57:52;;;;;;;12.53;6.53;;;;;;;;;;5109310;28;20402;-78
2023/04/05 01:00:20;;;;;;;13.25;6.95;;;;;;;;;;5068972;28;20425;-77
2023/04/05 01:02:52;;;;;;;12.60;6.47;;;;;;;;;;5088741;28;20989;-77
2023/04/05 01:05:30;;;;;;;11.65;6.85;;;;;;;;;;5074282;28;20506;-77
2023/04/05 01:08:09;;;;;;;14.23;6.95;;;;;;;;;;5072206;28;20424;-77
2023/04/05 01:10:37;;;;;;;10.52;6.68;;;;;;;;;;5080693;28;20940;-77
2023/04/05 01:13:04;;;;;;;13.30;6.93;;;;;;;;;;5073531;28;20459;-78
2023/04/05 01:15:31;;;;;;;12.25;6.50;;;;;;;;;;5074866;28;20487;-78
2023/04/05 01:18:00;;;;;;;13.18;6.65;;;;;;;;;;5064324;28;20512;-77
2023/04/05 01:20:28;;;;;;;12.05;6.95;;;;;;;;;;5071570;28;20426;-78
2023/04/05 01:23:00;;;;;;;12.18;6.80;;;;;;;;;;5102248;28;20466;-78
2023/04/05 01:25:45;;;;;;;13.00;7.50;;;;;;;;;;5066955;28;20441;-78
2023/04/05 01:28:11;;;;;;;12.55;7.25;;;;;;;;;;5081859;28;20510;-78
2023/04/05 01:30:39;;;;;;;12.80;6.82;;;;;;;;;;5071828;28;20421;-78
2023/04/05 01:33:14;;;;;;;12.45;6.75;;;;;;;;;;5073403;28;20425;-77
2023/04/05 01:35:50;;;;;;;13.35;7.10;;;;;;;;;;5069800;28;20497;-78
2023/04/05 01:38:18;;;;;;;10.35;6.88;;;;;;;;;;5074764;28;20758;-78
2023/04/05 01:40:44;;;;;;;13.57;7.40;;;;;;;;;;5068814;28;20404;-85
2023/04/05 01:43:14;;;;;;;13.77;6.85;;;;;;;;;;5085262;28;20418;-85
2023/04/05 01:45:41;;;;;;;11.90;6.80;;;;;;;;;;5092056;28;20433;-85
2023/04/05 01:48:07;;;;;;;12.23;6.57;;;;;;;;;;5071505;28;20431;-85
2023/04/05 01:50:33;;;;;;;12.80;7.00;;;;;;;;;;5077790;28;20402;-85
2023/04/05 01:52:59;;;;;;;13.82;7.30;;;;;;;;;;5074943;28;20948;-85
2023/04/05 01:55:25;;;;;;;14.32;7.38;;;;;;;;;;5074968;28;20418;-85
2023/04/05 01:57:52;;;;;;;13.57;7.35;;;;;;;;;;5076771;28;20406;-83
2023/04/05 02:00:18;;;;;;;13.20;7.43;;;;;;;;;;5056076;28;20947;-85
2023/04/05 02:02:45;;;;;;;14.52;7.22;;;;;;;;;;5075817;28;20419;-85
2023/04/05 02:05:11;;;;;;;12.32;7.18;;;;;;;;;;5110504;28;20417;-85
2023/04/05 02:07:37;;;;;;;15.50;7.60;;;;;;;;;;5093648;28;20431;-85
2023/04/05 02:10:03;;;;;;;13.45;7.32;;;;;;;;;;5077808;28;20475;-85
2023/04/05 02:12:29;;;;;;;14.50;7.60;;;;;;;;;;5095418;28;20402;-86
2023/04/05 02:14:56;;;;;;;12.75;7.57;;;;;;;;;;5091678;28;20430;-85
2023/04/05 02:17:22;;;;;;;13.63;7.85;;;;;;;;;;5059184;28;20475;-85
2023/04/05 02:19:48;;;;;;;14.88;7.55;;;;;;;;;;5093505;28;20430;-85
2023/04/05 02:22:14;;;;;;;12.43;7.50;;;;;;;;;;5063871;28;20478;-82
2023/04/05 02:24:41;;;;;;;14.23;7.88;;;;;;;;;;5067101;28;20466;-84
2023/04/05 02:27:07;;;;;;;17.17;8.90;;;;;;;;;;5083057;28;20444;-85
2023/04/05 02:29:33;;;;;;;14.57;8.60;;;;;;;;;;5081038;28;20410;-85
2023/04/05 02:32:00;;;;;;;13.15;8.20;;;;;;;;;;5078431;28;20426;-85
2023/04/05 02:34:26;;;;;;;14.50;8.60;;;;;;;;;;5062231;28;20502;-85
2023/04/05 02:36:52;;;;;;;13.88;8.43;;;;;;;;;;5080102;28;20421;-86
2023/04/05 02:39:18;;;;;;;15.80;8.50;;;;;;;;;;5130062;28;20430;-85
2023/04/05 02:41:45;;;;;;;15.65;8.18;;;;;;;;;;5069286;28;20419;-85
2023/04/05 02:44:12;;;;;;;15.55;8.52;;;;;;;;;;5086799;28;20446;-85
2023/04/05 02:46:38;;;;;;;14.82;8.40;;;;;;;;;;5104192;28;20434;-82
2023/04/05 02:49:04;;;;;;;16.67;8.57;;;;;;;;;;5078149;28;20418;-85
2023/04/05 02:51:33;;;;;;;17.00;9.32;;;;;;;;;;5064794;28;20480;-84
2023/04/05 02:54:00;;;;;;;16.93;8.57;;;;;;;;;;5086297;28;20428;-85
2023/04/05 02:56:26;;;;;;;15.70;8.43;;;;;;;;;;5089117;28;20910;-85
2023/04/05 02:58:52;;;;;;;14.43;8.30;;;;;;;;;;5077146;28;20889;-86
2023/04/05 03:01:19;;;;;;;20.70;9.40;;;;;;;;;;5093641;28;20511;-85
2023/04/05 03:03:45;;;;;;;17.48;8.80;;;;;;;;;;5093836;28;20458;-85
2023/04/05 03:06:12;;;;;;;14.95;8.93;;;;;;;;;;5076914;28;20434;-85
2023/04/05 03:08:45;;;;;;;15.60;8.75;;;;;;;;;;5093193;28;20892;-85
2023/04/05 03:11:11;;;;;;;17.10;8.90;;;;;;;;;;5093433;28;20398;-86
2023/04/05 03:13:38;;;;;;;14.02;8.50;;;;;;;;;;5092775;28;20409;-82
2023/04/05 03:16:04;;;;;;;15.50;8.68;;;;;;;;;;5094042;28;20418;-83
2023/04/05 03:18:31;;;;;;;15.45;8.90;;;;;;;;;;5077315;28;20928;-83
2023/04/05 03:20:57;;;;;;;16.95;8.65;;;;;;;;;;5076290;28;20422;-84
2023/04/05 03:23:28;;;;;;;14.75;8.90;;;;;;;;;;5093476;28;20405;-83
2023/04/05 03:25:57;;;;;;;14.93;8.73;;;;;;;;;;5057109;28;20422;-84
2023/04/05 03:28:24;;;;;;;16.38;8.90;;;;;;;;;;5094411;28;21180;-84
2023/04/05 03:30:50;;;;;;;12.73;8.40;;;;;;;;;;5076555;28;20398;-83
2023/04/05 03:33:16;;;;;;;15.17;8.77;;;;;;;;;;5075064;28;20464;-84
2023/04/05 03:35:42;;;;;;;13.95;8.48;;;;;;;;;;5056347;28;20413;-84
2023/04/05 03:38:08;;;;;;;13.20;8.20;;;;;;;;;;5060067;28;20508;-84
2023/04/05 03:40:34;;;;;;;14.25;8.70;;;;;;;;;;5093837;28;20479;-83
2023/04/05 03:43:00;;;;;;;15.03;8.67;;;;;;;;;;5076718;28;20402;-82
2023/04/05 03:45:28;;;;;;;15.10;8.98;;;;;;;;;;5091757;28;20493;-83
2023/04/05 03:47:54;;;;;;;15.82;7.88;;;;;;;;;;5068609;28;20418;-83
2023/04/05 03:50:20;;;;;;;14.63;8.20;;;;;;;;;;5066937;28;20423;-83
2023/04/05 03:52:46;;;;;;;14.32;8.35;;;;;;;;;;5042918;28;20429;-82
2023/04/05 03:55:15;;;;;;;14.13;8.20;;;;;;;;;;5075126;28;20503;-82
2023/04/05 03:57:41;;;;;;;14.25;8.48;;;;;;;;;;5100480;28;20774;-83
2023/04/05 04:00:16;;;;;;;16.58;9.13;;;;;;;;;;5058775;28;20430;-78
2023/04/05 04:02:42;;;;;;;15.63;9.68;;;;;;;;;;5075481;28;20445;-78
2023/04/05 04:05:08;;;;;;;15.10;9.18;;;;;;;;;;5074457;28;20977;-78
2023/04/05 04:07:34;;;;;;;16.02;9.05;;;;;;;;;;5089113;28;20426;-77
2023/04/05 04:10:00;;;;;;;16.48;9.15;;;;;;;;;;5074359;28;20402;-77
2023/04/05 04:12:26;;;;;;;17.88;9.80;;;;;;;;;;5091857;28;20405;-77
2023/04/05 04:14:53;;;;;;;15.17;9.40;;;;;;;;;;5060275;28;20484;-78
2023/04/05 04:17:34;;;;;;;14.52;9.38;;;;;;;;;;5058439;28;20897;-78
2023/04/05 04:20:01;;;;;;;15.65;9.40;;;;;;;;;;5087645;28;20417;-78
2023/04/05 04:22:31;;;;;;;70.13;43.33;;;;;;;;;;5057447;28;20485;-78
2023/04/05 04:25:03;;;;;;;26.48;15.18;;;;;;;;;;5056803;28;20432;-78
2023/04/05 04:27:29;;;;;;;40.97;25.80;;;;;;;;;;5073137;28;20414;-76
2023/04/05 04:30:00;;;;;;;25.33;15.40;;;;;;;;;;5073425;28;20410;-78
2023/04/05 04:32:49;;;;;;;27.67;16.70;;;;;;;;;;5091350;28;20410;-78
2023/04/05 04:35:19;;;;;;;48.58;28.80;;;;;;;;;;5072581;28;20449;-77
2023/04/05 04:37:51;;;;;;;28.80;16.58;;;;;;;;;;5071419;28;20856;-77
2023/04/05 04:40:18;;;;;;;24.15;15.43;;;;;;;;;;5076817;28;20424;-78
2023/04/05 04:42:45;;;;;;;21.70;13.68;;;;;;;;;;5106875;28;20793;-78
2023/04/05 04:45:16;;;;;;;21.77;13.63;;;;;;;;;;5046818;28;20423;-78
2023/04/05 04:47:46;;;;;;;22.25;13.30;;;;;;;;;;5075620;28;20426;-78
2023/04/05 04:50:13;;;;;;;28.90;15.73;;;;;;;;;;5061190;28;20404;-79
2023/04/05 04:52:39;;;;;;;22.73;13.90;;;;;;;;;;5092291;28;20490;-78
2023/04/05 04:55:09;;;;;;;24.43;13.90;;;;;;;;;;5090359;28;20777;-79
2023/04/05 04:57:35;;;;;;;23.00;13.75;;;;;;;;;;5094020;28;20458;-78
2023/04/05 05:00:06;;;;;;;24.20;14.07;;;;;;;;;;5055509;28;20511;-78
2023/04/05 05:02:32;;;;;;;23.98;14.85;;;;;;;;;;5070306;28;20600;-78
2023/04/05 05:04:58;;;;;;;25.70;15.07;;;;;;;;;;5070489;28;20422;-78
2023/04/05 05:07:24;;;;;;;22.08;14.77;;;;;;;;;;5102704;28;20446;-79
2023/04/05 05:09:52;;;;;;;22.33;14.15;;;;;;;;;;5066692;28;20435;-78
2023/04/05 05:12:20;;;;;;;22.20;14.52;;;;;;;;;;5075628;28;20931;-78
2023/04/05 05:14:47;;;;;;;23.08;14.40;;;;;;;;;;5089776;28;20421;-77
2023/04/05 05:17:13;;;;;;;22.17;13.40;;;;;;;;;;5059479;28;20428;-77
2023/04/05 05:19:39;;;;;;;23.38;13.85;;;;;;;;;;5059865;28;20429;-78
2023/04/05 05:22:05;;;;;;;22.80;12.73;;;;;;;;;;5052580;28;20496;-77
2023/04/05 05:24:31;;;;;;;20.40;13.10;;;;;;;;;;5037184;28;20778;-76
2023/04/05 05:26:57;;;;;;;25.95;16.85;;;;;;;;;;5057425;28;20462;-76
2023/04/05 05:29:23;;;;;;;25.63;15.57;;;;;;;;;;5033944;28;20423;-78
2023/04/05 05:31:50;;;;;;;25.13;15.57;;;;;;;;;;5094272;28;20424;-77
2023/04/05 05:34:16;;;;;;;24.38;15.88;;;;;;;;;;5043905;28;20501;-76
2023/04/05 05:36:42;;;;;;;29.30;16.40;;;;;;;;;;5067509;28;20496;-78
2023/04/05 05:39:08;;;;;;;22.13;14.60;;;;;;;;;;5056636;28;20398;-77
2023/04/05 05:41:35;;;;;;;25.47;15.67;;;;;;;;;;5053805;28;20422;-77
2023/04/05 05:44:01;;;;;;;25.27;17.27;;;;;;;;;;5064118;28;20434;-78
2023/04/05 05:46:27;;;;;;;30.23;17.20;;;;;;;;;;5069680;28;20421;-79
2023/04/05 05:48:53;;;;;;;27.88;17.35;;;;;;;;;;5036210;28;20489;-79
2023/04/05 05:51:19;;;;;;;30.23;17.77;;;;;;;;;;5088085;28;20462;-78
2023/04/05 05:53:46;;;;;;;29.08;17.58;;;;;;;;;;5083588;28;20414;-77
2023/04/05 05:56:12;;;;;;;23.90;16.80;;;;;;;;;;5065197;28;20424;-76
2023/04/05 05:58:38;;;;;;;26.75;18.30;;;;;;;;;;5090354;28;20515;-77
2023/04/05 06:01:06;;;;;;;27.60;18.10;;;;;;;;;;5068097;28;20433;-78
2023/04/05 06:03:32;;;;;;;27.70;16.60;;;;;;;;;;5043438;28;20416;-78
2023/04/05 06:05:58;;;;;;;24.92;15.85;;;;;;;;;;5051323;28;20422;-77
2023/04/05 06:08:26;;;;;;;22.60;14.95;;;;;;;;;;5053288;28;20773;-77
2023/04/05 06:10:52;;;;;;;24.88;16.15;;;;;;;;;;5051700;28;20509;-78
2023/04/05 06:13:19;;;;;;;24.43;16.13;;;;;;;;;;5051304;28;21034;-82
2023/04/05 06:15:46;;;;;;;24.00;15.02;;;;;;;;;;5077071;28;20410;-85
2023/04/05 06:18:15;;;;;;;25.63;17.08;;;;;;;;;;5056833;28;20882;-80
2023/04/05 06:20:44;;;;;;;25.08;16.55;;;;;;;;;;5089867;28;20398;-83
2023/04/05 06:23:11;;;;;;;21.55;14.10;;;;;;;;;;5087912;28;20429;-82
2023/04/05 06:25:37;;;;;;;22.33;14.32;;;;;;;;;;5081912;28;20778;-82
2023/04/05 06:28:04;;;;;;;22.10;14.40;;;;;;;;;;5086806;28;20436;-82
2023/04/05 06:30:30;;;;;;;21.33;14.13;;;;;;;;;;5052866;28;20425;-82
2023/04/05 06:32:57;;;;;;;22.85;13.93;;;;;;;;;;5068524;28;20939;-83
2023/04/05 06:35:26;;;;;;;21.17;14.13;;;;;;;;;;5055306;28;20504;-81
2023/04/05 06:37:52;;;;;;;22.90;13.47;;;;;;;;;;5067807;28;20422;-81
2023/04/05 06:40:19;;;;;;;19.33;13.57;;;;;;;;;;5088677;28;20423;-80
2023/04/05 06:42:45;;;;;;;22.92;13.63;;;;;;;;;;5069001;28;20512;-82
2023/04/05 06:45:12;;;;;;;20.45;13.70;;;;;;;;;;5055722;28;20917;-82
2023/04/05 06:47:38;;;;;;;19.83;13.85;;;;;;;;;;5050289;28;20466;-83
2023/04/05 06:50:05;;;;;;;20.00;13.30;;;;;;;;;;5074775;28;20414;-82
2023/04/05 06:52:32;;;;;;;21.42;13.88;;;;;;;;;;5092086;28;20414;-82
2023/04/05 06:54:58;;;;;;;22.05;14.02;;;;;;;;;;5075598;28;20438;-82
2023/04/05 06:57:24;;;;;;;21.08;13.90;;;;;;;;;;5067784;28;20435;-82
2023/04/05 06:59:53;;;;;;;18.92;13.30;;;;;;;;;;5077267;28;20452;-83
2023/04/05 07:02:20;;;;;;;19.13;13.33;;;;;;;;;;5069067;28;20468;-82
2023/04/05 07:04:47;;;;;;;19.27;12.80;;;;;;;;;;5057327;28;20421;-81
2023/04/05 07:07:13;;;;;;;19.25;12.98;;;;;;;;;;5075971;28;20426;-82
2023/04/05 07:09:39;;;;;;;19.25;13.48;;;;;;;;;;5069874;28;20456;-83
2023/04/05 07:12:06;;;;;;;21.80;13.63;;;;;;;;;;5075982;28;20993;-81
2023/04/05 07:14:33;;;;;;;20.58;13.27;;;;;;;;;;5073321;28;20749;-84
2023/04/05 07:16:59;;;;;;;18.83;13.27;;;;;;;;;;5076147;28;20473;-83
2023/04/05 07:19:25;;;;;;;18.58;13.57;;;;;;;;;;5072092;28;20410;-84
2023/04/05 07:21:51;;;;;;;20.13;13.35;;;;;;;;;;5074517;28;20551;-83
2023/04/05 07:24:18;;;;;;;17.60;13.15;;;;;;;;;;5059289;28;20417;-83
2023/04/05 07:26:44;;;;;;;18.95;12.90;;;;;;;;;;5075844;28;20397;-83
2023/04/05 07:29:11;;;;;;;18.92;12.57;;;;;;;;;;5064767;28;20496;-83
2023/04/05 07:31:38;;;;;;;17.77;12.57;;;;;;;;;;5059911;28;20762;-82
2023/04/05 07:34:05;;;;;;;18.73;13.18;;;;;;;;;;5072633;28;20551;-82
2023/04/05 07:36:31;;;;;;;17.27;11.90;;;;;;;;;;5059635;28;21002;-82
2023/04/05 07:38:57;;;;;;;18.10;12.45;;;;;;;;;;5054011;28;20498;-82
2023/04/05 07:41:30;;;;;;;18.40;12.93;;;;;;;;;;5096449;28;20410;-90
2023/04/05 07:43:56;;;;;;;16.07;11.70;;;;;;;;;;5082011;28;20490;-87
2023/04/05 07:46:22;;;;;;;17.88;12.00;;;;;;;;;;5082838;28;20474;-88
2023/04/05 07:48:49;;;;;;;17.83;12.05;;;;;;;;;;5056906;28;20893;-89
2023/04/05 07:51:15;;;;;;;16.90;11.25;;;;;;;;;;5056098;28;20413;-84
2023/04/05 07:53:41;;;;;;;14.68;10.70;;;;;;;;;;5099836;28;20412;-83
2023/04/05 07:56:09;;;;;;;15.93;10.88;;;;;;;;;;5119442;28;20423;-82
2023/04/05 07:58:35;;;;;;;18.25;11.07;;;;;;;;;;5095979;28;20458;-84
2023/04/05 08:01:01;;;;;;;16.95;11.15;;;;;;;;;;5060252;28;20853;-83
2023/04/05 08:03:33;;;;;;;16.00;10.68;;;;;;;;;;5074192;28;20475;-83
2023/04/05 08:06:09;;;;;;;15.90;10.83;;;;;;;;;;5058482;28;20417;-83
2023/04/05 08:08:35;;;;;;;13.32;9.35;;;;;;;;;;5059054;28;20459;-83
2023/04/05 08:11:04;;;;;;;14.23;10.18;;;;;;;;;;5052988;28;22394;-84
2023/04/05 08:13:30;;;;;;;16.58;10.68;;;;;;;;;;5087499;28;20424;-86
2023/04/05 08:15:56;;;;;;;13.73;9.27;;;;;;;;;;5073099;28;20432;-84
2023/04/05 08:18:22;;;;;;;13.48;9.35;;;;;;;;;;5091824;28;20449;-84
2023/04/05 08:20:53;;;;;;;11.65;8.60;;;;;;;;;;5037591;28;20498;-84
2023/04/05 08:23:19;;;;;;;13.32;8.43;;;;;;;;;;5069687;28;20429;-84
2023/04/05 08:25:46;;;;;;;11.55;8.73;;;;;;;;;;5090424;28;20492;-84
2023/04/05 08:28:12;;;;;;;11.15;7.80;;;;;;;;;;5075676;28;20456;-84
2023/04/05 08:30:38;;;;;;;11.32;8.43;;;;;;;;;;5093279;28;20414;-84
2023/04/05 08:33:05;;;;;;;12.77;8.20;;;;;;;;;;5075539;28;20405;-84
2023/04/05 08:35:31;;;;;;;11.52;8.52;;;;;;;;;;5094585;28;20414;-84
2023/04/05 08:37:57;;;;;;;15.10;7.70;;;;;;;;;;5056635;28;20413;-85
2023/04/05 08:40:32;;;;;;;12.33;8.30;;;;;;;;;;5054332;28;20426;-85
2023/04/05 08:43:07;;;;;;;12.07;7.20;;;;;;;;;;5081511;28;20456;-85
2023/04/05 08:45:34;;;;;;;10.15;7.10;;;;;;;;;;5087835;28;20413;-86
2023/04/05 08:48:00;;;;;;;10.63;6.28;;;;;;;;;;5089173;28;20463;-86
2023/04/05 08:50:26;;;;;;;11.95;6.90;;;;;;;;;;5078183;28;20481;-85
2023/04/05 08:52:52;;;;;;;12.00;6.43;;;;;;;;;;5084689;28;20415;-85
2023/04/05 08:55:19;;;;;;;9.77;6.10;;;;;;;;;;5089572;28;20435;-85
2023/04/05 08:57:50;;;;;;;9.10;6.00;;;;;;;;;;5090662;28;20418;-85
2023/04/05 09:00:16;;;;;;;10.20;6.20;;;;;;;;;;5057819;28;20410;-85
2023/04/05 09:02:44;;;;;;;8.70;6.38;;;;;;;;;;5069836;28;20526;-85
2023/04/05 09:05:11;;;;;;;10.57;6.50;;;;;;;;;;5068110;28;20416;-85
2023/04/05 09:07:38;;;;;;;9.90;6.85;;;;;;;;;;5085107;28;20461;-84
2023/04/05 09:10:05;;;;;;;8.88;6.60;;;;;;;;;;5088278;28;20417;-86
2023/04/05 09:12:31;;;;;;;10.65;6.85;;;;;;;;;;5089282;28;20427;-83
2023/04/05 09:15:00;;;;;;;9.88;6.82;;;;;;;;;;5071383;28;20433;-84
2023/04/05 09:17:27;;;;;;;9.55;6.85;;;;;;;;;;5068928;28;20417;-86
2023/04/05 09:22:59;;;;;;;12.75;6.85;;;;;;;;;;5064921;28;20459;-80
2023/04/05 09:25:31;;;;;;;9.13;5.37;;;;;;;;;;5039311;28;20475;-82
2023/04/05 09:28:02;;;;;;;9.13;5.32;;;;;;;;;;5032095;28;20421;-83
2023/04/05 09:30:30;;;;;;;8.23;5.35;;;;;;;;;;5028158;28;20782;-82
2023/04/05 09:32:56;;;;;;;9.83;5.20;;;;;;;;;;5018152;28;20423;-83
2023/04/05 09:35:23;;;;;;;8.48;5.20;;;;;;;;;;5030921;28;20421;-84
2023/04/05 09:37:53;;;;;;;8.75;5.38;;;;;;;;;;5014697;28;20901;-82
2023/04/05 09:40:19;;;;;;;8.65;5.20;;;;;;;;;;5036969;28;20555;-81
2023/04/05 09:42:46;;;;;;;13.15;5.50;;;;;;;;;;5033218;28;20455;-81
2023/04/05 09:45:12;;;;;;;7.78;5.00;;;;;;;;;;5014153;28;20424;-80
2023/04/05 09:47:44;;;;;;;9.93;5.38;;;;;;;;;;5077367;28;20460;-81
2023/04/05 09:50:13;;;;;;;7.60;5.45;;;;;;;;;;5050848;28;20418;-81
2023/04/05 09:52:39;;;;;;;7.90;5.37;;;;;;;;;;5080034;28;20462;-80
2023/04/05 09:55:06;;;;;;;9.82;5.80;;;;;;;;;;5038347;28;20417;-80
2023/04/05 09:57:42;;;;;;;9.48;6.10;;;;;;;;;;5078282;28;20517;-82
2023/04/05 10:00:19;;;;;;;8.30;5.80;;;;;;;;;;5069059;28;21095;-82
2023/04/05 10:02:46;;;;;;;9.52;6.03;;;;;;;;;;5079279;28;20511;-80
2023/04/05 10:05:14;;;;;;;9.85;5.60;;;;;;;;;;5073088;28;20409;-81
2023/04/05 10:07:41;;;;;;;8.27;5.88;;;;;;;;;;5073133;28;20426;-80
2023/04/05 10:10:08;;;;;;;8.43;5.63;;;;;;;;;;5056440;28;20478;-81
2023/04/05 10:12:37;;;;;;;8.88;5.85;;;;;;;;;;5072034;28;20462;-83
2023/04/05 10:15:04;;;;;;;8.20;5.80;;;;;;;;;;5070323;28;20418;-82
2023/04/05 10:17:36;;;;;;;9.73;5.75;;;;;;;;;;5072842;28;20422;-84
2023/04/05 10:20:04;;;;;;;9.97;5.53;;;;;;;;;;5070854;28;20418;-82
2023/04/05 10:22:34;;;;;;;8.30;5.50;;;;;;;;;;5073154;28;20777;-83
2023/04/05 10:25:29;;;;;;;8.23;5.93;;;9.70;99.90;;;;;;5073670;28;20494;-82
2023/04/05 10:27:58;;;;;;;9.95;5.07;;;;;;;;;;5058505;28;20471;-81
2023/04/05 10:30:24;;;;;;;10.75;5.60;;;;;;;;;;5072076;28;20775;-82
2023/04/05 10:32:57;;;;;;;7.50;5.20;;;;;;;;;;5093509;28;20968;-81
2023/04/05 10:35:31;;;;;;;9.57;5.80;;;;;;;;;;5058984;28;20418;-81
2023/04/05 10:38:09;;;;;;;9.32;5.32;;;;;;;;;;5083113;28;22171;-81
2023/04/05 10:40:36;;;;;;;7.88;5.43;;;;;;;;;;5080759;28;20413;-81
2023/04/05 10:43:03;;;;;;;7.90;5.30;;;;;;;;;;5050652;28;20425;-81
2023/04/05 10:45:31;;;;;;;10.10;6.13;;;;;;;;;;5035142;28;20497;-81
2023/04/05 10:48:20;;;;;;;10.32;5.53;;;;;;;;;;5109451;28;20514;-81
2023/04/05 10:50:47;;;;;;;10.63;5.65;;;;;;;;;;5057716;28;20421;-81
2023/04/05 10:53:13;;;;;;;9.40;5.20;;;;;;;;;;5042685;28;20529;-81
2023/04/05 10:55:40;;;;;;;9.23;5.22;;;;;;;;;;5059477;28;20422;-80
2023/04/05 10:58:06;;;;;;;7.43;5.18;;;;;;;;;;5050561;28;20767;-81
2023/04/05 11:00:35;;;;;;;8.23;5.10;;;;;;;;;;5046934;28;20836;-82
2023/04/05 11:03:01;;;;;;;8.45;5.05;;;;;;;;;;5088145;28;20417;-82
2023/04/05 11:05:37;;;;;;;8.53;5.27;;;;;;;;;;5072605;28;20424;-85
2023/04/05 11:08:07;;;;;;;8.63;5.57;;;;;;;;;;5089134;28;20430;-83
2023/04/05 11:10:37;;;;;;;8.40;5.13;;;;;;;;;;5093757;28;20414;-83
2023/04/05 11:13:04;;;;;;;8.60;5.07;;;;;;;;;;5088430;28;20457;-83
2023/04/05 11:15:31;;;;;;;8.13;4.90;;;;;;;;;;5089142;28;20419;-83
2023/04/05 11:18:10;;;;;;;8.55;5.05;;;;;;;;;;5033696;28;20434;-82
2023/04/05 11:20:43;;;;;;;7.53;4.82;;;;;;;;;;5094127;28;20420;-91
2023/04/05 11:23:30;;;;;;;10.13;5.68;;;;;;;;;;5080203;28;20899;-86
2023/04/05 11:26:06;;;;;;;7.88;5.25;;;;;;;;;;5077092;28;20413;-88
2023/04/05 11:28:38;;;;;;;6.57;4.88;;;;;;;;;;5058538;28;20418;-88
2023/04/05 11:31:25;;;;;;;7.35;4.60;;;;;;;;;;5084477;28;20415;-86
2023/04/05 11:33:58;;;;;;;8.52;4.63;;;;;;;;;;5089668;28;20386;-89
2023/04/05 11:36:47;;;;;;;7.60;4.80;;;;;;;;;;5093678;28;20416;-86
2023/04/05 11:39:22;;;;;;;8.90;4.55;;;;;;;;;;5088709;28;20926;-86
2023/04/05 11:41:53;;;;;;;7.28;5.07;;;;;;;;;;5088132;28;20418;-86
2023/04/05 11:44:27;;;;;;;7.15;4.70;;;;;;;;;;5088641;28;20417;-86
2023/04/05 11:46:56;;;;;;;9.85;5.70;;;;;;;;;;5057864;28;20974;-84
2023/04/05 11:50:08;;;;;;;8.30;5.13;;;;;;;;;;5098991;28;20498;-86
2023/04/05 11:52:37;;;;;;;7.38;5.13;;;;;;;;;;5034691;28;20426;-84
2023/04/05 11:55:14;;;;;;;8.00;4.90;;;;;;;;;;5044047;28;20449;-85
2023/04/05 11:57:41;;;;;;;6.90;5.10;;;;;;;;;;5070018;28;20795;-86
2023/04/05 12:00:07;;;;;;;8.63;4.95;;;;;;;;;;5105574;28;20429;-85
2023/04/05 12:02:34;;;;;;;7.57;4.87;;;;;;;;;;5079884;28;20494;-87
2023/04/05 12:05:00;;;;;;;7.38;5.20;;;;;;;;;;5088825;28;20795;-86
2023/04/05 12:07:35;;;;;;;8.52;5.68;;;;;;;;;;5092124;28;20432;-85
2023/04/05 12:10:36;;;;;;;7.37;5.10;;;;;;;;;;5091544;28;20394;-87
2023/04/05 12:13:28;;;;;;;11.70;5.07;;;;;;;;;;5078866;28;20498;-86
2023/04/05 12:16:21;;;;;;;;;;;;;;;;;;;;;
2023/04/05 12:19:26;;;;;;;7.60;4.80;;;;;;;;;;5061608;28;20430;-88
2023/04/05 12:21:56;;;;;;;8.35;5.18;;;;;;;;;;5014298;28;20429;-85
2023/04/05 12:24:33;;;;;;;10.10;5.50;;;;;;;;;;5028393;28;20816;-85
2023/04/05 12:27:05;;;;;;;7.47;5.32;;;;;;;;;;5014134;28;20412;-86
2023/04/05 12:29:55;;;;;;;8.43;5.03;;;;;;;;;;5017229;28;20430;-85
2023/04/05 12:33:06;;;;;;;;;;;;;;;;;;;;;
2023/04/05 12:39:38;;;;;;;9.33;4.80;;;;;;;;;;4923258;29;20462;-86
2023/04/05 12:45:59;;;;;;;6.20;4.65;;;;;;;;;;4925434;29;20428;-85
2023/04/05 12:48:43;;;;;;;6.90;4.75;;;;;;;;;;4919218;29;20451;-81
2023/04/05 12:51:28;;;;;;;9.00;5.55;;;;;;;;;;4916889;29;20444;-85
2023/04/05 12:54:36;;;;;;;;;;;;;;;;;;;;;
2023/04/05 12:57:44;;;;;;;8.48;5.38;;;;;;;;;;4914443;29;20490;-82
2023/04/05 13:00:25;;;;;;;7.55;4.82;;;;;;;;;;4936201;29;20423;-84
2023/04/05 13:03:10;;;;;;;8.90;5.27;;;;;;;;;;4960792;28;20511;-84
2023/04/05 13:06:12;;;;;;;8.95;5.20;;;;;;;;;;4997829;28;20523;-86
2023/04/05 13:08:53;;;;;;;6.78;5.28;;;;;;;;;;5037006;28;20424;-86
2023/04/05 13:11:58;;;;;;;7.53;5.00;;;;;;;;;;5064624;28;20903;-84
2023/04/05 13:14:24;;;;;;;7.03;5.13;;;;;;;;;;5009668;28;20478;-84
2023/04/05 13:27:08;;;;;;;6.70;5.00;;;;;;;;;;5007225;28;20423;-84
2023/04/05 13:30:38;;;;;;;8.00;5.20;;;;;;;;;;4995636;28;20415;-85
2023/04/05 13:32:45;;;;;;;8.35;5.55;;;;;;;;;;5018659;28;20738;-85
2023/04/05 13:35:19;;;;;;;8.30;5.00;;;;;;;;;;5012900;28;20409;-85
2023/04/05 13:37:46;;;;;;;7.70;5.50;;;;;;;;;;5030194;28;20417;-83
2023/04/05 13:40:14;;;;;;;7.10;4.78;;;;;;;;;;5050716;28;20413;-85
2023/04/05 13:42:44;;;;;;;7.32;4.97;;;;;;;;;;5030663;28;20452;-84
2023/04/05 13:45:12;;;;;;;7.70;5.22;;;;;;;;;;5047620;28;20428;-84
2023/04/05 13:47:42;;;;;;;7.18;5.03;;;;;;;;;;5053579;28;20974;-86
2023/04/05 13:50:12;;;;;;;7.80;5.03;;;;;;;;;;5063812;28;20442;-87
2023/04/05 13:55:27;;;;;;;7.72;5.30;;;;;;;;;;5055008;28;20758;-88
2023/04/05 13:57:53;;;;;;;7.72;5.38;;;;;;;;;;5048213;28;20432;-83
2023/04/05 14:00:22;;;;;;;8.43;5.82;;;;;;;;;;5047377;28;20421;-80
2023/04/05 14:02:50;;;;;;;7.00;4.63;;;;;;;;;;5062723;28;20938;-82
2023/04/05 14:05:17;;;;;;;8.10;4.88;;;;;;;;;;5052129;28;20429;-81
2023/04/05 14:07:43;;;;;;;7.20;5.10;;;;;;;;;;5070834;28;20950;-81
2023/04/05 14:10:10;;;;;;;8.02;4.85;;;;;;;;;;5068342;28;20507;-82
2023/04/05 14:12:44;;;;;;;7.13;5.10;;;;;;;;;;5051366;28;20517;-81
2023/04/05 14:15:10;;;;;;;7.57;5.40;;;;;;;;;;5067518;28;20498;-82
2023/04/05 14:17:36;;;;;;;8.32;5.45;;;;;;;;;;5061858;28;21192;-82
2023/04/05 14:20:02;;;;;;;8.20;5.30;;;;;;;;;;5067634;28;20459;-80
2023/04/05 14:22:31;;;;;;;9.93;5.77;;;;;;;;;;5039254;28;20510;-80
2023/04/05 14:25:00;;;;;;;7.50;5.03;;;;;;;;;;5045035;28;20427;-81
2023/04/05 14:27:27;;;;;;;7.45;5.38;;;;;;;;;;5053333;28;20434;-80
2023/04/05 14:29:56;;;;;;;8.50;5.57;;;;;;;;;;5054992;28;20420;-82
2023/04/05 14:32:24;;;;;;;7.25;4.95;;;;;;;;;;5054672;28;20831;-80
2023/04/05 14:34:50;;;;;;;6.40;5.03;;;;;;;;;;5054947;28;20427;-81
2023/04/05 14:37:17;;;;;;;7.05;4.93;;;;;;;;;;5055025;28;21282;-83
2023/04/05 14:39:43;;;;;;;7.80;5.40;;;;;;;;;;5052951;28;20882;-82
2023/04/05 14:42:09;;;;;;;8.02;5.55;;;;;;;;;;5087043;28;20903;-83
2023/04/05 14:44:35;;;;;;;8.60;5.10;;;;;;;;;;5054860;28;20453;-82
2023/04/05 14:47:01;;;;;;;7.63;5.45;;;;;;;;;;5054548;28;20516;-83
2023/04/05 14:49:28;;;;;;;11.75;5.60;;;;;;;;;;5063802;28;20463;-84
2023/04/05 14:51:54;;;;;;;9.03;5.10;;;;;;;;;;5041631;28;20431;-83
2023/04/05 14:54:26;;;;;;;7.30;5.03;;;;;;;;;;5040964;28;20404;-84
2023/04/05 14:56:52;;;;;;;8.57;5.38;;;;;;;;;;5053790;28;20409;-83
2023/04/05 14:59:18;;;;;;;7.50;4.77;;;;;;;;;;5035960;28;21005;-81
2023/04/05 15:01:46;;;;;;;9.75;4.97;;;;;;;;;;5037600;28;20428;-84
2023/04/05 15:04:12;;;;;;;7.25;5.05;;;;;;;;;;5051490;28;20413;-84
2023/04/05 15:06:49;;;;;;;8.88;5.25;;;;;;;;;;5036580;28;20498;-85
2023/04/05 15:09:18;;;;;;;8.90;5.20;;;;;;;;;;5055829;28;20441;-85
2023/04/05 15:11:44;;;;;;;7.57;5.43;;;;;;;;;;5057136;28;20420;-85